createdAt,value
2019-05-14T00:00:41.668Z,83.09
2019-05-14T00:01:41.964Z,82.90
2019-05-14T00:02:41.370Z,82.81
2019-05-14T00:03:41.364Z,82.71
2019-05-14T00:04:39.245Z,83.09
2019-05-14T00:05:39.144Z,83.09
2019-05-14T00:06:39.043Z,82.81
2019-05-14T00:07:41.274Z,82.62
2019-05-14T00:08:38.963Z,82.62
2019-05-14T00:09:41.140Z,82.33
2019-05-14T00:10:38.643Z,82.43
2019-05-14T00:11:38.541Z,82.05
2019-05-14T00:12:38.441Z,82.62
2019-05-14T00:13:38.355Z,82.05
2019-05-14T00:14:40.341Z,81.86
2019-05-14T00:15:38.246Z,82.33
2019-05-14T00:16:38.041Z,81.20
2019-05-14T00:17:37.941Z,81.01
2019-05-14T00:18:37.853Z,81.38
2019-05-14T00:19:37.739Z,81.86
2019-05-14T00:20:37.638Z,81.20
2019-05-14T00:21:37.539Z,80.53
2019-05-14T00:22:37.540Z,81.48
2019-05-14T00:23:37.356Z,82.71
2019-05-14T00:24:37.240Z,82.71
2019-05-14T00:25:37.138Z,81.99
2019-05-14T00:26:37.037Z,81.05
2019-05-14T00:27:36.937Z,84.36
2019-05-14T00:28:36.857Z,85.22
2019-05-14T00:29:36.837Z,84.27
2019-05-14T00:30:36.639Z,83.61
2019-05-14T00:31:36.535Z,83.13
2019-05-14T00:32:36.436Z,81.99
2019-05-14T00:33:36.336Z,82.66
2019-05-14T00:34:36.247Z,83.13
2019-05-14T00:35:36.265Z,82.47
2019-05-14T00:36:36.032Z,82.85
2019-05-14T00:37:35.933Z,82.66
2019-05-14T00:38:35.833Z,83.13
2019-05-14T00:39:35.747Z,83.23
2019-05-14T00:40:35.632Z,82.47
2019-05-14T00:41:35.532Z,82.75
2019-05-14T00:42:35.431Z,83.00
2019-05-14T00:43:35.331Z,83.37
2019-05-14T00:44:35.244Z,83.00
2019-05-14T00:45:35.130Z,82.71
2019-05-14T00:46:35.028Z,82.90
2019-05-14T00:47:34.933Z,83.28
2019-05-14T00:48:34.831Z,83.28
2019-05-14T00:49:34.741Z,82.81
2019-05-14T00:50:34.634Z,82.81
2019-05-14T00:51:34.528Z,81.67
2019-05-14T00:52:34.430Z,81.20
2019-05-14T00:53:34.326Z,80.06
2019-05-14T00:54:34.241Z,79.68
2019-05-14T00:55:34.129Z,79.87
2019-05-14T00:56:34.026Z,80.25
2019-05-14T00:57:33.924Z,79.77
2019-05-14T00:58:33.828Z,80.34
2019-05-14T00:59:33.740Z,80.06
2019-05-14T01:00:33.624Z,79.87
2019-05-14T01:01:33.525Z,79.87
2019-05-14T01:02:33.424Z,81.57
2019-05-14T01:03:33.341Z,84.70
2019-05-14T01:04:33.239Z,82.43
2019-05-14T01:05:33.121Z,81.01
2019-05-14T01:06:33.021Z,81.01
2019-05-14T01:07:32.923Z,80.72
2019-05-14T01:08:32.823Z,81.76
2019-05-14T01:09:32.733Z,81.57
2019-05-14T01:10:32.622Z,81.76
2019-05-14T01:11:32.519Z,81.57
2019-05-14T01:12:32.425Z,81.10
2019-05-14T01:13:32.319Z,81.10
2019-05-14T01:14:32.219Z,81.38
2019-05-14T01:15:32.429Z,81.76
2019-05-14T01:16:32.055Z,81.86
2019-05-14T01:17:31.916Z,81.76
2019-05-14T01:18:32.405Z,81.76
2019-05-14T01:19:31.849Z,81.38
2019-05-14T01:20:32.060Z,81.67
2019-05-14T01:21:31.513Z,81.76
2019-05-14T01:22:31.711Z,81.48
2019-05-14T01:23:32.266Z,81.20
2019-05-14T01:24:32.244Z,81.01
2019-05-14T01:25:31.782Z,81.76
2019-05-14T01:26:31.168Z,81.86
2019-05-14T01:27:31.747Z,81.67
2019-05-14T01:28:32.165Z,83.75
2019-05-14T01:29:31.699Z,82.71
2019-05-14T01:30:31.967Z,82.24
2019-05-14T01:31:31.468Z,82.43
2019-05-14T01:32:31.514Z,82.62
2019-05-14T01:33:31.924Z,83.00
2019-05-14T01:34:32.469Z,82.52
2019-05-14T01:35:31.614Z,83.37
2019-05-14T01:36:31.865Z,84.32
2019-05-14T01:37:31.091Z,84.23
2019-05-14T01:38:31.470Z,83.75
2019-05-14T01:39:31.883Z,83.75
2019-05-14T01:40:31.542Z,83.47
2019-05-14T01:41:31.549Z,83.18
2019-05-14T01:42:29.411Z,83.28
2019-05-14T01:43:31.400Z,83.66
2019-05-14T01:44:29.209Z,82.43
2019-05-14T01:45:31.465Z,82.75
2019-05-14T01:46:29.009Z,81.67
2019-05-14T01:47:28.910Z,82.24
2019-05-14T01:48:31.119Z,81.86
2019-05-14T01:49:28.706Z,82.75
2019-05-14T01:50:28.622Z,82.43
2019-05-14T01:51:28.508Z,82.52
2019-05-14T01:52:28.519Z,81.67
2019-05-14T01:53:28.306Z,82.90
2019-05-14T01:54:28.207Z,81.57
2019-05-14T01:55:28.120Z,83.18
2019-05-14T01:56:28.008Z,82.90
2019-05-14T01:57:27.905Z,81.62
2019-05-14T01:58:27.812Z,82.24
2019-05-14T01:59:27.817Z,82.09
2019-05-14T02:00:27.623Z,82.52
2019-05-14T02:01:27.506Z,82.14
2019-05-14T02:02:27.405Z,81.86
2019-05-14T02:03:27.306Z,82.05
2019-05-14T02:04:27.206Z,82.43
2019-05-14T02:05:27.119Z,82.33
2019-05-14T02:06:27.109Z,82.43
2019-05-14T02:07:26.904Z,82.33
2019-05-14T02:08:26.805Z,82.90
2019-05-14T02:09:26.706Z,82.33
2019-05-14T02:10:26.608Z,81.86
2019-05-14T02:11:26.519Z,82.33
2019-05-14T02:12:26.405Z,82.14
2019-05-14T02:13:26.405Z,82.24
2019-05-14T02:14:26.202Z,82.24
2019-05-14T02:15:37.126Z,82.29
2019-05-14T02:16:26.017Z,81.63
2019-05-14T02:17:25.903Z,81.92
2019-05-14T02:18:25.803Z,81.15
2019-05-14T02:19:25.702Z,80.40
2019-05-14T02:20:25.765Z,80.58
2019-05-14T02:21:25.515Z,80.30
2019-05-14T02:22:25.401Z,80.02
2019-05-14T02:23:25.300Z,79.93
2019-05-14T02:24:25.201Z,79.55
2019-05-14T02:25:25.100Z,79.45
2019-05-14T02:26:25.013Z,79.26
2019-05-14T02:27:25.010Z,79.26
2019-05-14T02:28:24.797Z,79.17
2019-05-14T02:29:24.701Z,78.79
2019-05-14T02:30:33.493Z,79.45
2019-05-14T02:31:24.513Z,78.41
2019-05-14T02:32:24.401Z,79.26
2019-05-14T02:33:24.298Z,79.26
2019-05-14T02:34:24.296Z,78.69
2019-05-14T02:35:24.095Z,78.88
2019-05-14T02:36:24.007Z,78.59
2019-05-14T02:37:23.899Z,78.59
2019-05-14T02:38:23.796Z,78.79
2019-05-14T02:39:23.693Z,78.79
2019-05-14T02:40:23.592Z,78.41
2019-05-14T02:41:23.504Z,78.50
2019-05-14T02:42:23.684Z,78.69
2019-05-14T02:43:23.290Z,78.69
2019-05-14T02:44:23.203Z,78.59
2019-05-14T02:45:23.090Z,78.41
2019-05-14T02:46:23.004Z,78.79
2019-05-14T02:47:22.890Z,78.79
2019-05-14T02:48:22.799Z,78.69
2019-05-14T02:49:22.802Z,78.88
2019-05-14T02:50:22.586Z,78.98
2019-05-14T02:51:22.504Z,78.79
2019-05-14T02:52:22.387Z,78.79
2019-05-14T02:53:22.284Z,78.88
2019-05-14T02:54:22.188Z,78.79
2019-05-14T02:55:22.085Z,78.79
2019-05-14T02:56:22.111Z,78.69
2019-05-14T02:57:21.881Z,78.88
2019-05-14T02:58:21.780Z,78.79
2019-05-14T02:59:21.685Z,78.88
2019-05-14T03:00:21.582Z,78.59
2019-05-14T03:01:21.493Z,78.88
2019-05-14T03:02:21.480Z,78.98
2019-05-14T03:03:21.288Z,78.88
2019-05-14T03:04:21.181Z,78.98
2019-05-14T03:05:21.074Z,78.79
2019-05-14T03:06:20.987Z,78.41
2019-05-14T03:07:20.911Z,78.13
2019-05-14T03:08:20.775Z,78.88
2019-05-14T03:09:20.753Z,78.13
2019-05-14T03:10:20.680Z,78.03
2019-05-14T03:11:20.475Z,78.50
2019-05-14T03:12:20.386Z,77.94
2019-05-14T03:13:20.612Z,77.18
2019-05-14T03:14:20.190Z,77.65
2019-05-14T03:15:20.369Z,77.65
2019-05-14T03:16:30.086Z,77.84
2019-05-14T03:17:20.317Z,77.56
2019-05-14T03:18:20.102Z,77.46
2019-05-14T03:19:19.896Z,77.56
2019-05-14T03:20:19.890Z,77.94
2019-05-14T03:21:19.942Z,77.84
2019-05-14T03:22:26.821Z,77.94
2019-05-14T03:23:22.849Z,77.94
2019-05-14T03:24:19.757Z,77.59
2019-05-14T03:25:19.389Z,77.59
2019-05-14T03:26:19.912Z,78.07
2019-05-14T03:27:19.571Z,77.69
2019-05-14T03:28:19.937Z,77.22
2019-05-14T03:29:19.606Z,77.88
2019-05-14T03:30:22.868Z,77.78
2019-05-14T03:31:22.628Z,77.69
2019-05-14T03:32:22.500Z,77.40
2019-05-14T03:33:21.924Z,77.88
2019-05-14T03:34:22.047Z,77.88
2019-05-14T03:35:24.438Z,77.59
2019-05-14T03:36:25.663Z,77.59
2019-05-14T03:37:23.673Z,77.31
2019-05-14T03:38:19.671Z,77.22
2019-05-14T03:39:19.114Z,77.50
2019-05-14T03:40:19.453Z,77.69
2019-05-14T03:41:19.651Z,77.88
2019-05-14T03:42:19.285Z,77.40
2019-05-14T03:43:19.822Z,77.22
2019-05-14T03:44:19.758Z,77.40
2019-05-14T03:45:19.473Z,77.50
2019-05-14T03:46:20.287Z,77.12
2019-05-14T03:47:19.501Z,77.40
2019-05-14T03:48:19.104Z,77.03
2019-05-14T03:49:19.651Z,77.12
2019-05-14T03:50:19.163Z,76.65
2019-05-14T03:51:16.453Z,76.17
2019-05-14T03:52:19.624Z,75.23
2019-05-14T03:53:18.790Z,74.37
2019-05-14T03:54:19.231Z,73.80
2019-05-14T03:55:16.042Z,73.99
2019-05-14T03:56:19.021Z,72.96
2019-05-14T03:57:15.839Z,72.77
2019-05-14T03:58:20.618Z,72.96
2019-05-14T03:59:15.689Z,72.16
2019-05-14T04:00:18.722Z,71.72
2019-05-14T04:01:15.432Z,71.59
2019-05-14T04:02:15.334Z,71.12
2019-05-14T04:03:15.248Z,70.74
2019-05-14T04:04:15.142Z,69.70
2019-05-14T04:05:18.752Z,69.32
2019-05-14T04:06:14.928Z,68.84
2019-05-14T04:07:14.834Z,68.18
2019-05-14T04:08:14.744Z,66.95
2019-05-14T04:09:14.625Z,66.47
2019-05-14T04:10:14.527Z,65.81
2019-05-14T04:11:14.434Z,65.25
2019-05-14T04:12:14.337Z,65.06
2019-05-14T04:13:14.237Z,64.39
2019-05-14T04:14:14.126Z,64.30
2019-05-14T04:15:14.023Z,63.64
2019-05-14T04:16:13.923Z,63.45
2019-05-14T04:17:15.470Z,63.45
2019-05-14T04:18:13.733Z,62.97
2019-05-14T04:19:13.619Z,62.31
2019-05-14T04:20:13.517Z,62.02
2019-05-14T04:21:13.415Z,61.46
2019-05-14T04:22:13.315Z,60.89
2019-05-14T04:23:13.227Z,60.41
2019-05-14T04:24:13.120Z,60.61
2019-05-14T04:25:13.014Z,60.32
2019-05-14T04:26:12.913Z,60.13
2019-05-14T04:27:13.491Z,60.32
2019-05-14T04:28:12.726Z,60.51
2019-05-14T04:29:12.607Z,60.13
2019-05-14T04:30:12.508Z,60.80
2019-05-14T04:31:12.408Z,60.80
2019-05-14T04:32:12.369Z,60.89
2019-05-14T04:33:12.219Z,60.99
2019-05-14T04:34:12.109Z,60.89
2019-05-14T04:35:12.011Z,60.51
2019-05-14T04:36:11.910Z,60.61
2019-05-14T04:37:11.803Z,60.99
2019-05-14T04:38:11.714Z,60.80
2019-05-14T04:39:11.601Z,60.99
2019-05-14T04:40:11.603Z,61.27
2019-05-14T04:41:11.410Z,61.49
2019-05-14T04:42:11.298Z,61.21
2019-05-14T04:43:11.212Z,62.05
2019-05-14T04:44:11.098Z,62.43
2019-05-14T04:45:11.591Z,62.43
2019-05-14T04:46:11.048Z,63.39
2019-05-14T04:47:27.684Z,64.04
2019-05-14T04:48:27.950Z,64.23
2019-05-14T04:49:10.595Z,63.60
2019-05-14T04:50:10.950Z,64.17
2019-05-14T04:51:10.399Z,64.93
2019-05-14T04:52:10.381Z,65.69
2019-05-14T04:53:10.217Z,65.88
2019-05-14T04:54:10.213Z,66.64
2019-05-14T04:55:10.200Z,66.64
2019-05-14T04:56:10.210Z,67.11
2019-05-14T04:57:10.471Z,68.15
2019-05-14T04:58:10.208Z,69.01
2019-05-14T04:59:10.609Z,68.91
2019-05-14T05:00:12.093Z,69.48
2019-05-14T05:01:10.013Z,69.67
2019-05-14T05:02:09.810Z,69.38
2019-05-14T05:03:12.609Z,70.24
2019-05-14T05:04:09.680Z,69.77
2019-05-14T05:05:09.302Z,70.34
2019-05-14T05:06:09.879Z,70.84
2019-05-14T05:07:09.872Z,71.22
2019-05-14T05:08:09.109Z,71.70
2019-05-14T05:09:09.408Z,72.64
2019-05-14T05:10:10.119Z,72.74
2019-05-14T05:11:09.375Z,73.12
2019-05-14T05:12:09.282Z,73.03
2019-05-14T05:13:09.180Z,73.60
2019-05-14T05:14:08.964Z,73.69
2019-05-14T05:15:09.347Z,73.41
2019-05-14T05:16:10.021Z,73.60
2019-05-14T05:17:09.217Z,73.97
2019-05-14T05:18:09.583Z,73.60
2019-05-14T05:19:10.150Z,74.16
2019-05-14T05:20:09.858Z,74.07
2019-05-14T05:21:08.768Z,74.26
2019-05-14T05:22:08.029Z,74.83
2019-05-14T05:23:08.486Z,74.77
2019-05-14T05:24:09.228Z,74.68
2019-05-14T05:25:08.357Z,74.77
2019-05-14T05:26:09.114Z,74.96
2019-05-14T05:27:09.118Z,76.29
2019-05-14T05:28:08.831Z,76.20
2019-05-14T05:29:09.666Z,76.20
2019-05-14T05:30:08.443Z,76.01
2019-05-14T05:31:09.036Z,76.10
2019-05-14T05:32:08.468Z,75.96
2019-05-14T05:33:08.807Z,76.48
2019-05-14T05:34:08.730Z,76.57
2019-05-14T05:35:06.020Z,76.39
2019-05-14T05:36:06.024Z,76.86
2019-05-14T05:37:08.410Z,76.34
2019-05-14T05:38:05.722Z,76.67
2019-05-14T05:39:07.921Z,76.95
2019-05-14T05:40:05.526Z,76.76
2019-05-14T05:41:05.427Z,76.57
2019-05-14T05:42:05.326Z,76.92
2019-05-14T05:43:05.329Z,76.92
2019-05-14T05:44:05.143Z,76.54
2019-05-14T05:45:05.030Z,76.76
2019-05-14T05:46:04.934Z,76.95
2019-05-14T05:47:04.834Z,76.76
2019-05-14T05:48:04.745Z,76.76
2019-05-14T05:49:04.650Z,76.76
2019-05-14T05:50:04.537Z,76.39
2019-05-14T05:51:04.444Z,76.86
2019-05-14T05:52:04.344Z,76.95
2019-05-14T05:53:04.246Z,76.86
2019-05-14T05:54:04.154Z,76.67
2019-05-14T05:55:04.041Z,76.67
2019-05-14T05:56:03.944Z,76.57
2019-05-14T05:57:03.845Z,76.01
2019-05-14T05:58:03.745Z,77.14
2019-05-14T05:59:03.662Z,77.14
2019-05-14T06:00:03.552Z,77.52
2019-05-14T06:01:03.452Z,77.05
2019-05-14T06:02:03.352Z,77.94
2019-05-14T06:03:03.254Z,77.47
2019-05-14T06:04:03.157Z,78.70
2019-05-14T06:05:03.076Z,78.42
2019-05-14T06:06:02.973Z,78.70
2019-05-14T06:07:02.886Z,81.30
2019-05-14T06:08:02.762Z,79.65
2019-05-14T06:09:02.667Z,80.13
2019-05-14T06:10:02.579Z,80.60
2019-05-14T06:11:02.467Z,80.51
2019-05-14T06:12:02.369Z,81.84
2019-05-14T06:13:02.271Z,82.21
2019-05-14T06:14:02.175Z,81.84
2019-05-14T06:15:02.098Z,81.45
2019-05-14T06:16:01.980Z,82.03
2019-05-14T06:17:01.879Z,80.22
2019-05-14T06:18:13.928Z,81.36
2019-05-14T06:19:01.690Z,81.26
2019-05-14T06:20:01.607Z,81.68
2019-05-14T06:21:01.522Z,81.97
2019-05-14T06:22:04.161Z,81.97
2019-05-14T06:23:01.298Z,81.78
2019-05-14T06:24:03.018Z,82.10
2019-05-14T06:25:01.112Z,82.49
2019-05-14T06:26:01.008Z,81.54
2019-05-14T06:27:00.908Z,84.86
2019-05-14T06:28:00.807Z,86.57
2019-05-14T06:29:00.713Z,86.57
2019-05-14T06:30:00.625Z,86.00
2019-05-14T06:31:00.518Z,85.91
2019-05-14T06:32:00.418Z,87.62
2019-05-14T06:33:00.320Z,87.43
2019-05-14T06:34:00.225Z,85.62
2019-05-14T06:35:00.140Z,87.38
2019-05-14T06:36:00.030Z,88.23
2019-05-14T06:36:59.933Z,87.19
2019-05-14T06:37:59.836Z,89.28
2019-05-14T06:38:59.740Z,91.18
2019-05-14T06:39:59.655Z,89.56
2019-05-14T06:40:59.612Z,92.08
2019-05-14T06:41:59.448Z,91.32
2019-05-14T06:42:59.353Z,91.32
2019-05-14T06:43:59.296Z,91.42
2019-05-14T06:44:59.172Z,90.14
2019-05-14T06:45:59.063Z,92.08
2019-05-14T06:46:59.236Z,91.51
2019-05-14T06:47:59.274Z,93.23
2019-05-14T06:48:59.178Z,92.13
2019-05-14T06:49:59.223Z,91.46
2019-05-14T06:50:58.582Z,90.89
2019-05-14T06:51:59.240Z,92.94
2019-05-14T06:52:58.390Z,93.89
2019-05-14T06:53:58.774Z,93.41
2019-05-14T06:54:58.357Z,93.89
2019-05-14T06:55:58.761Z,92.98
2019-05-14T06:56:58.355Z,94.41
2019-05-14T06:57:58.481Z,92.55
2019-05-14T06:58:58.432Z,93.60
2019-05-14T06:59:58.885Z,94.46
2019-05-14T07:00:58.904Z,95.22
2019-05-14T07:01:58.024Z,94.27
2019-05-14T07:02:58.246Z,94.32
2019-05-14T07:03:58.118Z,94.98
2019-05-14T07:04:59.033Z,95.65
2019-05-14T07:05:59.341Z,94.51
2019-05-14T07:06:59.071Z,94.60
2019-05-14T07:07:59.745Z,95.46
2019-05-14T07:08:58.871Z,94.74
2019-05-14T07:09:58.196Z,94.42
2019-05-14T07:10:59.031Z,94.60
2019-05-14T07:11:58.530Z,95.84
2019-05-14T07:12:59.078Z,95.65
2019-05-14T07:13:58.100Z,96.03
2019-05-14T07:14:58.420Z,96.65
2019-05-14T07:15:58.379Z,97.78
2019-05-14T07:16:58.573Z,96.65
2019-05-14T07:17:58.278Z,95.70
2019-05-14T07:18:55.919Z,95.70
2019-05-14T07:19:58.056Z,95.08
2019-05-14T07:20:55.742Z,94.51
2019-05-14T07:21:58.102Z,94.51
2019-05-14T07:22:55.536Z,95.41
2019-05-14T07:23:55.444Z,94.18
2019-05-14T07:24:55.346Z,95.12
2019-05-14T07:25:55.270Z,95.60
2019-05-14T07:26:55.264Z,96.17
2019-05-14T07:27:55.059Z,96.12
2019-05-14T07:28:54.958Z,96.22
2019-05-14T07:29:54.880Z,96.03
2019-05-14T07:30:54.782Z,96.41
2019-05-14T07:31:54.672Z,95.98
2019-05-14T07:32:54.575Z,96.12
2019-05-14T07:33:54.586Z,95.98
2019-05-14T07:34:54.380Z,96.08
2019-05-14T07:35:54.313Z,96.17
2019-05-14T07:36:54.192Z,97.03
2019-05-14T07:37:54.095Z,95.03
2019-05-14T07:38:56.484Z,95.60
2019-05-14T07:39:53.900Z,96.03
2019-05-14T07:40:53.921Z,97.08
2019-05-14T07:41:53.703Z,97.93
2019-05-14T07:42:53.609Z,97.08
2019-05-14T07:43:53.510Z,96.98
2019-05-14T07:44:53.413Z,97.83
2019-05-14T07:45:53.328Z,96.22
2019-05-14T07:46:53.235Z,95.70
2019-05-14T07:47:53.121Z,95.60
2019-05-14T07:49:04.416Z,96.36
2019-05-14T07:49:52.929Z,96.17
2019-05-14T07:50:52.872Z,95.51
2019-05-14T07:51:52.738Z,95.46
2019-05-14T07:52:52.638Z,96.60
2019-05-14T07:53:52.545Z,95.08
2019-05-14T07:54:52.444Z,94.89
2019-05-14T07:55:52.364Z,94.70
2019-05-14T07:56:53.056Z,94.79
2019-05-14T07:57:52.163Z,95.60
2019-05-14T07:58:52.056Z,96.41
2019-05-14T07:59:51.961Z,97.60
2019-05-14T08:00:51.876Z,98.36
2019-05-14T08:01:51.766Z,98.26
2019-05-14T08:02:51.670Z,97.78
2019-05-14T08:03:51.573Z,97.74
2019-05-14T08:04:51.475Z,98.03
2019-05-14T08:05:51.394Z,98.22
2019-05-14T08:06:51.286Z,98.03
2019-05-14T08:07:51.186Z,97.45
2019-05-14T08:08:51.087Z,96.69
2019-05-14T08:09:50.993Z,96.41
2019-05-14T08:10:50.898Z,96.22
2019-05-14T08:11:50.811Z,96.41
2019-05-14T08:12:50.703Z,96.65
2019-05-14T08:13:50.607Z,97.78
2019-05-14T08:15:13.091Z,97.69
2019-05-14T08:15:50.414Z,97.64
2019-05-14T08:16:50.325Z,97.93
2019-05-14T08:17:50.218Z,98.17
2019-05-14T08:18:50.432Z,97.03
2019-05-14T08:19:50.022Z,93.79
2019-05-14T08:20:49.926Z,93.23
2019-05-14T08:21:49.842Z,92.36
2019-05-14T08:22:49.730Z,91.61
2019-05-14T08:23:49.634Z,93.04
2019-05-14T08:24:49.536Z,91.80
2019-05-14T08:25:49.449Z,91.80
2019-05-14T08:26:49.360Z,90.84
2019-05-14T08:27:49.250Z,91.51
2019-05-14T08:28:49.229Z,92.94
2019-05-14T08:29:49.055Z,93.60
2019-05-14T08:30:49.225Z,94.74
2019-05-14T08:31:48.962Z,93.51
2019-05-14T08:32:49.083Z,93.89
2019-05-14T08:33:49.166Z,94.08
2019-05-14T08:34:48.572Z,94.56
2019-05-14T08:35:48.971Z,93.60
2019-05-14T08:36:48.516Z,94.56
2019-05-14T08:37:49.204Z,94.93
2019-05-14T08:38:49.978Z,94.60
2019-05-14T08:39:48.812Z,95.08
2019-05-14T08:40:48.879Z,94.22
2019-05-14T08:41:58.581Z,91.84
2019-05-14T08:42:49.020Z,91.75
2019-05-14T08:43:48.894Z,92.60
2019-05-14T08:44:50.946Z,91.89
2019-05-14T08:45:48.692Z,91.89
2019-05-14T08:46:48.628Z,92.46
2019-05-14T08:47:48.298Z,94.37
2019-05-14T08:48:49.612Z,93.98
2019-05-14T08:49:50.496Z,93.04
2019-05-14T08:50:48.141Z,92.84
2019-05-14T08:51:49.380Z,92.75
2019-05-14T08:52:48.388Z,91.75
2019-05-14T08:53:49.819Z,90.27
2019-05-14T08:54:49.040Z,90.46
2019-05-14T08:55:48.732Z,88.84
2019-05-14T08:56:48.884Z,88.03
2019-05-14T08:57:48.709Z,85.60
2019-05-14T08:58:49.108Z,84.49
2019-05-14T08:59:48.610Z,84.34
2019-05-14T09:00:48.096Z,81.86
2019-05-14T09:02:00.828Z,83.05
2019-05-14T09:02:48.391Z,82.71
2019-05-14T09:03:45.788Z,78.60
2019-05-14T09:04:52.639Z,77.25
2019-05-14T09:05:45.597Z,77.50
2019-05-14T09:06:45.521Z,79.02
2019-05-14T09:07:45.414Z,78.78
2019-05-14T09:08:45.317Z,78.39
2019-05-14T09:09:45.224Z,79.08
2019-05-14T09:10:45.133Z,78.70
2019-05-14T09:11:46.628Z,79.80
2019-05-14T09:12:44.947Z,80.61
2019-05-14T09:13:44.855Z,80.61
2019-05-14T09:14:44.769Z,78.74
2019-05-14T09:15:44.668Z,77.59
2019-05-14T09:16:47.686Z,76.50
2019-05-14T09:17:44.485Z,77.80
2019-05-14T09:18:44.395Z,79.28
2019-05-14T09:19:57.600Z,79.77
2019-05-14T09:20:44.209Z,82.01
2019-05-14T09:21:44.126Z,82.68
2019-05-14T09:22:44.040Z,83.02
2019-05-14T09:23:43.934Z,83.17
2019-05-14T09:24:43.843Z,83.26
2019-05-14T09:25:47.001Z,83.89
2019-05-14T09:26:43.661Z,83.94
2019-05-14T09:27:43.580Z,85.08
2019-05-14T09:28:43.477Z,87.18
2019-05-14T09:29:43.380Z,87.56
2019-05-14T09:30:43.286Z,86.90
2019-05-14T09:31:43.199Z,87.18
2019-05-14T09:32:43.134Z,89.22
2019-05-14T09:33:43.023Z,88.84
2019-05-14T09:34:42.917Z,86.74
2019-05-14T09:35:42.822Z,86.02
2019-05-14T09:36:42.725Z,84.69
2019-05-14T09:37:42.648Z,84.86
2019-05-14T09:38:42.886Z,84.39
2019-05-14T09:39:42.448Z,82.06
2019-05-14T09:40:42.352Z,83.34
2019-05-14T09:41:42.258Z,81.90
2019-05-14T09:42:42.182Z,81.88
2019-05-14T09:43:42.074Z,83.65
2019-05-14T09:44:41.981Z,85.17
2019-05-14T09:45:41.890Z,87.23
2019-05-14T09:46:41.798Z,90.17
2019-05-14T09:47:47.520Z,90.27
2019-05-14T09:48:41.607Z,89.08
2019-05-14T09:49:41.514Z,90.32
2019-05-14T09:50:41.423Z,90.51
2019-05-14T09:51:41.335Z,91.37
2019-05-14T09:52:41.249Z,91.22
2019-05-14T09:53:41.142Z,89.40
2019-05-14T09:54:43.977Z,88.12
2019-05-14T09:55:40.957Z,85.91
2019-05-14T09:56:40.862Z,81.66
2019-05-14T09:57:40.786Z,79.31
2019-05-14T09:58:40.672Z,78.58
2019-05-14T09:59:40.598Z,77.72
2019-05-14T10:00:40.485Z,77.53
2019-05-14T10:01:40.394Z,79.16
2019-05-14T10:02:40.313Z,77.80
2019-05-14T10:03:40.207Z,79.86
2019-05-14T10:04:40.132Z,82.20
2019-05-14T10:05:40.021Z,83.50
2019-05-14T10:06:39.929Z,84.74
2019-05-14T10:07:39.966Z,85.31
2019-05-14T10:08:39.745Z,84.83
2019-05-14T10:09:39.654Z,83.59
2019-05-14T10:10:40.071Z,83.88
2019-05-14T10:11:39.467Z,82.73
2019-05-14T10:12:51.203Z,82.31
2019-05-14T10:13:39.572Z,83.17
2019-05-14T10:14:39.531Z,84.69
2019-05-14T10:15:39.214Z,86.88
2019-05-14T10:16:39.002Z,86.22
2019-05-14T10:17:39.419Z,84.79
2019-05-14T10:18:38.841Z,85.46
2019-05-14T10:19:39.517Z,85.97
2019-05-14T10:20:45.473Z,84.88
2019-05-14T10:21:38.942Z,86.32
2019-05-14T10:22:39.862Z,85.36
2019-05-14T10:23:38.874Z,87.65
2019-05-14T10:24:38.756Z,86.16
2019-05-14T10:25:41.783Z,86.02
2019-05-14T10:26:39.468Z,83.77
2019-05-14T10:27:37.979Z,81.62
2019-05-14T10:28:41.293Z,80.09
2019-05-14T10:29:39.397Z,80.76
2019-05-14T10:30:37.700Z,81.52
2019-05-14T10:31:39.542Z,79.90
2019-05-14T10:32:41.330Z,79.80
2019-05-14T10:33:37.432Z,81.38
2019-05-14T10:34:37.327Z,82.24
2019-05-14T10:35:39.116Z,83.87
2019-05-14T10:36:37.140Z,83.73
2019-05-14T10:37:39.797Z,86.26
2019-05-14T10:38:38.826Z,91.17
2019-05-14T10:39:39.167Z,95.03
2019-05-14T10:40:38.538Z,97.27
2019-05-14T10:41:38.516Z,99.69
2019-05-14T10:42:39.974Z,99.99
2019-05-14T10:43:38.971Z,99.99
2019-05-14T10:44:38.759Z,99.99
2019-05-14T10:45:38.523Z,99.99
2019-05-14T10:46:38.405Z,99.99
2019-05-14T10:47:38.665Z,98.80
2019-05-14T10:48:36.072Z,97.66
2019-05-14T10:49:38.481Z,96.80
2019-05-14T10:50:52.229Z,94.03
2019-05-14T10:51:35.745Z,91.50
2019-05-14T10:52:35.650Z,92.46
2019-05-14T10:53:35.571Z,93.55
2019-05-14T10:54:35.463Z,94.65
2019-05-14T10:55:35.374Z,94.74
2019-05-14T10:56:35.395Z,94.41
2019-05-14T10:57:35.184Z,92.94
2019-05-14T10:58:35.104Z,95.79
2019-05-14T10:59:34.999Z,96.46
2019-05-14T11:00:34.905Z,97.31
2019-05-14T11:01:34.812Z,95.75
2019-05-14T11:02:34.719Z,95.56
2019-05-14T11:03:34.742Z,96.12
2019-05-14T11:04:34.752Z,95.75
2019-05-14T11:05:34.437Z,94.98
2019-05-14T11:06:34.346Z,95.17
2019-05-14T11:07:34.253Z,94.17
2019-05-14T11:08:34.171Z,93.60
2019-05-14T11:09:34.063Z,90.31
2019-05-14T11:10:34.086Z,89.45
2019-05-14T11:11:33.876Z,90.50
2019-05-14T11:12:33.789Z,90.17
2019-05-14T11:13:33.704Z,88.92
2019-05-14T11:14:33.631Z,89.64
2019-05-14T11:15:33.503Z,90.02
2019-05-14T11:16:33.408Z,91.26
2019-05-14T11:17:33.317Z,87.92
2019-05-14T11:18:33.239Z,89.35
2019-05-14T11:19:33.133Z,88.82
2019-05-14T11:20:33.038Z,88.87
2019-05-14T11:21:32.947Z,89.20
2019-05-14T11:22:32.858Z,89.67
2019-05-14T11:23:32.779Z,87.62
2019-05-14T11:24:32.792Z,85.51
2019-05-14T11:25:32.600Z,86.13
2019-05-14T11:26:32.489Z,83.03
2019-05-14T11:27:32.396Z,83.65
2019-05-14T11:28:32.316Z,82.94
2019-05-14T11:29:32.212Z,84.96
2019-05-14T11:30:32.122Z,86.59
2019-05-14T11:31:34.174Z,87.12
2019-05-14T11:32:31.939Z,88.98
2019-05-14T11:33:31.864Z,90.12
2019-05-14T11:34:31.758Z,91.60
2019-05-14T11:35:31.667Z,92.46
2019-05-14T11:36:31.587Z,93.13
2019-05-14T11:37:31.481Z,93.94
2019-05-14T11:38:37.299Z,95.60
2019-05-14T11:39:31.312Z,99.79
2019-05-14T11:40:31.205Z,99.99
2019-05-14T11:41:31.112Z,99.99
2019-05-14T11:42:31.635Z,99.99
2019-05-14T11:43:30.926Z,99.99
2019-05-14T11:44:30.846Z,99.99
2019-05-14T11:45:30.737Z,99.99
2019-05-14T11:46:44.331Z,99.60
2019-05-14T11:47:30.551Z,99.12
2019-05-14T11:48:30.483Z,99.99
2019-05-14T11:49:30.375Z,99.99
2019-05-14T11:50:30.269Z,99.99
2019-05-14T11:51:58.957Z,99.99
2019-05-14T11:52:30.080Z,99.99
2019-05-14T11:53:29.984Z,99.99
2019-05-14T11:54:29.905Z,99.99
2019-05-14T11:55:29.793Z,99.99
2019-05-14T11:56:29.697Z,99.99
2019-05-14T11:57:29.602Z,99.99
2019-05-14T11:58:29.619Z,99.99
2019-05-14T11:59:29.424Z,99.99
2019-05-14T12:00:29.657Z,99.99
2019-05-14T12:01:29.854Z,99.99
2019-05-14T12:02:29.187Z,99.99
2019-05-14T12:03:29.028Z,99.99
2019-05-14T12:04:28.957Z,99.99
2019-05-14T12:05:30.441Z,99.99
2019-05-14T12:06:30.511Z,99.99
2019-05-14T12:07:28.655Z,99.99
2019-05-14T12:08:28.893Z,99.99
2019-05-14T12:09:28.529Z,99.99
2019-05-14T12:10:29.270Z,99.95
2019-05-14T12:11:29.044Z,98.56
2019-05-14T12:12:28.852Z,96.56
2019-05-14T12:13:32.116Z,97.66
2019-05-14T12:14:27.989Z,97.61
2019-05-14T12:15:27.880Z,95.36
2019-05-14T12:16:29.147Z,96.03
2019-05-14T12:17:29.498Z,96.32
2019-05-14T12:18:29.208Z,97.61
2019-05-14T12:19:28.424Z,99.89
2019-05-14T12:20:29.632Z,99.99
2019-05-14T12:21:28.861Z,99.99
2019-05-14T12:22:28.638Z,99.99
2019-05-14T12:23:29.624Z,99.70
2019-05-14T12:24:29.096Z,99.99
2019-05-14T12:25:29.289Z,99.99
2019-05-14T12:26:28.258Z,99.32
2019-05-14T12:27:26.756Z,96.42
2019-05-14T12:28:29.207Z,94.17
2019-05-14T12:29:29.187Z,94.65
2019-05-14T12:30:28.723Z,92.83
2019-05-14T12:31:28.781Z,92.16
2019-05-14T12:32:26.289Z,92.07
2019-05-14T12:33:29.476Z,94.17
2019-05-14T12:34:29.239Z,92.88
2019-05-14T12:35:29.012Z,90.59
2019-05-14T12:36:25.920Z,89.67
2019-05-14T12:37:25.832Z,89.96
2019-05-14T12:38:25.771Z,87.72
2019-05-14T12:39:25.647Z,88.92
2019-05-14T12:40:25.566Z,87.82
2019-05-14T12:41:25.465Z,89.26
2019-05-14T12:42:25.374Z,91.69
2019-05-14T12:43:25.281Z,96.22
2019-05-14T12:44:25.190Z,94.89
2019-05-14T12:45:25.114Z,93.13
2019-05-14T12:46:25.004Z,91.99
2019-05-14T12:47:24.913Z,90.98
2019-05-14T12:48:24.820Z,91.60
2019-05-14T12:49:24.731Z,92.60
2019-05-14T12:50:24.651Z,90.45
2019-05-14T12:51:24.546Z,90.26